createdAt,value
2022-07-31T00:00:26.759Z,2.67
2022-07-31T00:02:56.576Z,2.95
2022-07-31T00:05:25.029Z,3.15
2022-07-31T00:07:54.715Z,2.83
2022-07-31T00:10:23.150Z,3.13
2022-07-31T00:12:51.589Z,3.35
2022-07-31T00:15:20.181Z,2.80
2022-07-31T00:17:49.278Z,2.50
2022-07-31T00:20:19.312Z,2.83
2022-07-31T00:22:49.364Z,3.10
2022-07-31T00:25:19.600Z,3.05
2022-07-31T00:27:48.388Z,3.13
2022-07-31T00:30:17.799Z,3.03
2022-07-31T00:32:46.280Z,2.80
2022-07-31T00:35:18.591Z,2.70
2022-07-31T00:37:46.963Z,2.90
2022-07-31T00:40:16.509Z,3.13
2022-07-31T00:42:45.291Z,2.83
2022-07-31T00:45:13.948Z,3.47
2022-07-31T00:47:42.598Z,2.97
2022-07-31T00:50:11.580Z,2.97
2022-07-31T00:52:41.716Z,3.45
2022-07-31T00:55:10.621Z,3.22
2022-07-31T00:57:39.056Z,2.95
2022-07-31T01:00:08.547Z,2.72
2022-07-31T01:02:38.323Z,3.03
2022-07-31T01:05:15.649Z,3.17
2022-07-31T01:07:45.518Z,3.33
2022-07-31T01:10:16.148Z,2.92
2022-07-31T01:12:50.908Z,3.28
2022-07-31T01:15:22.582Z,3.00
2022-07-31T01:17:52.607Z,3.00
2022-07-31T01:20:21.519Z,2.90
2022-07-31T01:23:12.765Z,2.97
2022-07-31T01:25:48.609Z,3.17
2022-07-31T01:28:30.106Z,2.90
2022-07-31T01:31:24.434Z,3.00
2022-07-31T01:33:52.910Z,2.85
2022-07-31T01:36:24.668Z,3.05
2022-07-31T01:38:55.358Z,2.90
2022-07-31T01:41:26.692Z,2.88
2022-07-31T01:43:56.844Z,3.25
2022-07-31T01:46:28.430Z,2.90
2022-07-31T01:48:59.106Z,3.15
2022-07-31T01:51:28.853Z,3.20
2022-07-31T01:53:57.819Z,2.95
2022-07-31T01:56:27.084Z,3.25
2022-07-31T01:58:57.647Z,3.03
2022-07-31T02:01:46.045Z,3.35
2022-07-31T02:04:15.967Z,2.95
2022-07-31T02:06:45.289Z,2.88
2022-07-31T02:09:14.269Z,3.08
2022-07-31T02:11:54.393Z,2.90
2022-07-31T02:14:25.345Z,3.17
2022-07-31T02:16:55.652Z,3.42
2022-07-31T02:19:36.674Z,2.63
2022-07-31T02:22:05.572Z,3.00
2022-07-31T02:24:34.269Z,3.10
2022-07-31T02:27:03.915Z,3.58
2022-07-31T02:29:33.771Z,2.90
2022-07-31T02:32:05.583Z,2.90
2022-07-31T02:34:35.705Z,3.20
2022-07-31T02:37:05.248Z,2.95
2022-07-31T02:39:34.196Z,3.28
2022-07-31T02:42:03.258Z,3.08
2022-07-31T02:44:34.669Z,3.00
2022-07-31T02:47:05.304Z,3.35
2022-07-31T02:49:34.412Z,3.13
2022-07-31T02:52:04.508Z,2.80
2022-07-31T02:54:33.803Z,2.95
2022-07-31T02:57:03.826Z,2.92
2022-07-31T02:59:32.245Z,2.92
2022-07-31T03:02:01.917Z,2.90
2022-07-31T03:04:34.679Z,2.90
2022-07-31T03:07:03.198Z,3.05
2022-07-31T03:09:31.690Z,3.20
2022-07-31T03:12:32.133Z,3.38
2022-07-31T03:15:01.200Z,3.22
2022-07-31T03:17:38.432Z,2.97
2022-07-31T03:20:13.602Z,3.03
2022-07-31T03:22:42.307Z,3.08
2022-07-31T03:25:20.073Z,2.85
2022-07-31T03:27:55.850Z,3.63
2022-07-31T03:30:26.561Z,3.10
2022-07-31T03:32:57.507Z,3.00
2022-07-31T03:35:27.644Z,3.00
2022-07-31T03:37:56.147Z,3.70
2022-07-31T03:40:24.781Z,3.30
2022-07-31T03:42:55.003Z,2.80
2022-07-31T03:45:23.401Z,3.38
2022-07-31T03:47:52.088Z,3.30
2022-07-31T03:50:20.788Z,3.47
2022-07-31T03:52:51.232Z,3.45
2022-07-31T03:55:20.849Z,3.00
2022-07-31T03:57:50.105Z,3.40
2022-07-31T04:00:20.428Z,3.67
2022-07-31T04:02:48.921Z,3.47
2022-07-31T04:05:39.852Z,2.85
2022-07-31T04:08:10.101Z,3.30
2022-07-31T04:10:39.265Z,3.40
2022-07-31T04:13:09.778Z,3.28
2022-07-31T04:15:38.136Z,3.20
2022-07-31T04:18:06.563Z,3.53
2022-07-31T04:20:42.264Z,3.45
2022-07-31T04:23:12.205Z,3.25
2022-07-31T04:26:01.342Z,3.33
2022-07-31T04:28:38.746Z,3.53
2022-07-31T04:31:07.072Z,3.15
2022-07-31T04:33:47.325Z,3.80
2022-07-31T04:36:29.944Z,3.28
2022-07-31T04:39:01.605Z,3.75
2022-07-31T04:41:30.892Z,3.63
2022-07-31T04:43:59.545Z,3.72
2022-07-31T04:46:31.622Z,4.28
2022-07-31T04:49:00.080Z,4.43
2022-07-31T04:51:28.950Z,4.80
2022-07-31T04:53:58.113Z,4.28
2022-07-31T04:56:35.807Z,4.25
2022-07-31T04:59:05.638Z,4.47
2022-07-31T05:01:35.623Z,4.55
2022-07-31T05:04:04.059Z,4.30
2022-07-31T05:06:36.754Z,4.93
2022-07-31T05:09:08.974Z,4.15
2022-07-31T05:11:40.671Z,4.60
2022-07-31T05:14:10.312Z,4.25
2022-07-31T05:16:38.683Z,4.40
2022-07-31T05:19:14.899Z,4.32
2022-07-31T05:22:02.803Z,4.57
2022-07-31T05:24:34.418Z,4.97
2022-07-31T05:27:08.644Z,4.70
2022-07-31T05:29:37.134Z,4.40
2022-07-31T05:32:05.972Z,4.15
2022-07-31T05:34:35.822Z,4.38
2022-07-31T05:37:04.466Z,4.30
2022-07-31T05:39:34.623Z,4.38
2022-07-31T05:42:22.600Z,4.15
2022-07-31T05:45:21.749Z,4.95
2022-07-31T05:47:50.137Z,3.75
2022-07-31T05:50:19.064Z,4.63
2022-07-31T05:52:49.337Z,4.60
2022-07-31T05:55:36.348Z,5.05
2022-07-31T05:58:28.841Z,4.60
2022-07-31T06:00:57.197Z,4.28
2022-07-31T06:03:27.779Z,4.25
2022-07-31T06:06:04.400Z,4.05
2022-07-31T06:08:33.504Z,4.13
2022-07-31T06:11:02.532Z,4.03
2022-07-31T06:13:32.612Z,3.72
2022-07-31T06:16:14.547Z,3.80
2022-07-31T06:18:43.527Z,4.07
2022-07-31T06:23:40.160Z,4.28
2022-07-31T06:26:42.630Z,4.32
2022-07-31T06:29:12.686Z,4.13
2022-07-31T06:31:41.055Z,3.85
2022-07-31T06:34:09.431Z,4.40
2022-07-31T06:36:43.142Z,3.90
2022-07-31T06:39:15.930Z,3.60
2022-07-31T06:42:04.154Z,4.30
2022-07-31T06:44:34.774Z,4.30
2022-07-31T06:47:23.523Z,4.07
2022-07-31T06:50:05.666Z,3.88
2022-07-31T06:52:40.232Z,3.53
2022-07-31T06:55:09.663Z,3.75
2022-07-31T06:57:38.960Z,3.80
2022-07-31T07:00:19.996Z,3.42
2022-07-31T07:02:50.887Z,3.33
2022-07-31T07:05:19.352Z,3.38
2022-07-31T07:07:51.766Z,3.65
2022-07-31T07:10:20.117Z,3.25
2022-07-31T07:13:00.197Z,3.88
2022-07-31T07:15:33.667Z,3.92
2022-07-31T07:18:02.058Z,3.22
2022-07-31T07:20:41.513Z,3.47
2022-07-31T07:23:09.933Z,3.67
2022-07-31T07:25:58.757Z,3.45
2022-07-31T07:28:30.991Z,3.28
2022-07-31T07:31:03.813Z,3.80
2022-07-31T07:33:39.695Z,3.35
2022-07-31T07:36:23.961Z,3.53
2022-07-31T07:39:02.347Z,3.70
2022-07-31T07:41:32.829Z,3.60
2022-07-31T07:44:02.443Z,3.67
2022-07-31T07:46:33.086Z,3.20
2022-07-31T07:49:03.258Z,3.33
2022-07-31T07:52:01.164Z,3.95
2022-07-31T07:54:43.083Z,4.00
2022-07-31T07:57:17.870Z,3.33
2022-07-31T08:00:06.900Z,3.50
2022-07-31T08:03:46.601Z,4.28
2022-07-31T08:05:45.638Z,3.22
2022-07-31T08:08:14.158Z,3.47
2022-07-31T08:11:04.815Z,3.50
2022-07-31T08:13:56.051Z,3.40
2022-07-31T08:17:02.993Z,3.67
2022-07-31T08:19:33.039Z,3.40
2022-07-31T08:22:01.755Z,3.42
2022-07-31T08:24:30.710Z,3.35
2022-07-31T08:27:16.616Z,2.90
2022-07-31T08:29:50.079Z,3.08
2022-07-31T08:32:20.460Z,2.83
2022-07-31T08:35:15.175Z,3.22
2022-07-31T08:38:02.770Z,3.30
2022-07-31T08:40:43.480Z,3.40
2022-07-31T08:44:02.639Z,3.10
2022-07-31T08:46:03.053Z,3.10
2022-07-31T08:48:36.654Z,3.15
2022-07-31T08:51:06.986Z,3.00
2022-07-31T08:53:55.838Z,3.25
2022-07-31T08:56:24.364Z,3.10
2022-07-31T08:58:52.965Z,3.20
2022-07-31T09:01:23.109Z,3.08
2022-07-31T09:03:51.640Z,2.70
2022-07-31T09:06:21.551Z,2.85
2022-07-31T09:08:49.972Z,2.97
2022-07-31T09:11:19.099Z,3.03
2022-07-31T09:14:02.173Z,2.60
2022-07-31T09:16:46.980Z,2.90
2022-07-31T09:19:51.981Z,2.60
2022-07-31T09:22:23.345Z,3.00
2022-07-31T09:24:51.907Z,2.70
2022-07-31T09:27:20.671Z,2.60
2022-07-31T09:29:49.975Z,2.75
2022-07-31T09:32:54.025Z,2.80
2022-07-31T09:35:48.076Z,2.70
2022-07-31T09:38:18.052Z,2.95
2022-07-31T09:41:56.360Z,2.85
2022-07-31T09:44:10.590Z,2.78
2022-07-31T09:46:40.806Z,2.97
2022-07-31T09:49:10.145Z,3.08
2022-07-31T09:51:41.091Z,2.88
2022-07-31T09:54:22.749Z,2.97
2022-07-31T09:57:00.301Z,2.80
2022-07-31T09:59:34.324Z,2.90
2022-07-31T10:02:03.338Z,2.65
2022-07-31T10:04:31.962Z,2.65
2022-07-31T10:07:00.774Z,2.72
2022-07-31T10:09:30.956Z,2.83
2022-07-31T10:12:13.461Z,3.03
2022-07-31T10:14:45.241Z,2.75
2022-07-31T10:17:15.781Z,2.92
2022-07-31T10:20:03.672Z,2.88
2022-07-31T10:22:45.705Z,3.33
2022-07-31T10:25:21.830Z,2.80
2022-07-31T10:27:51.292Z,2.88
2022-07-31T10:30:20.753Z,3.03
2022-07-31T10:32:55.294Z,3.10
2022-07-31T10:35:29.642Z,2.88
2022-07-31T10:38:05.563Z,3.10
2022-07-31T10:40:56.038Z,2.83
2022-07-31T10:43:27.893Z,3.10
2022-07-31T10:46:29.715Z,2.70
2022-07-31T10:49:16.588Z,3.05
2022-07-31T10:52:11.469Z,2.60
2022-07-31T10:54:54.649Z,2.83
2022-07-31T10:57:55.406Z,3.13
2022-07-31T11:01:06.400Z,2.92
2022-07-31T11:03:41.760Z,2.90
2022-07-31T11:06:39.984Z,3.00
2022-07-31T11:09:50.570Z,3.17
2022-07-31T11:13:00.148Z,3.80
2022-07-31T11:15:48.009Z,3.70
2022-07-31T11:18:47.393Z,3.17
2022-07-31T11:21:37.715Z,2.72
2022-07-31T11:24:13.294Z,2.85
2022-07-31T11:26:43.765Z,3.00
2022-07-31T11:30:00.249Z,3.30
2022-07-31T11:32:02.392Z,3.15
2022-07-31T11:34:30.765Z,3.08
2022-07-31T11:36:59.338Z,2.80
2022-07-31T11:39:36.742Z,3.38
2022-07-31T11:42:07.651Z,3.05
2022-07-31T11:44:37.861Z,3.15
2022-07-31T11:48:09.508Z,2.70
2022-07-31T11:50:02.220Z,3.55
2022-07-31T11:52:36.800Z,4.75
2022-07-31T11:55:09.064Z,11.63
2022-07-31T11:57:51.313Z,4.43
2022-07-31T12:00:26.711Z,2.90
2022-07-31T12:02:58.333Z,3.08
2022-07-31T12:05:38.752Z,2.85
2022-07-31T12:08:09.159Z,3.40
2022-07-31T12:10:37.833Z,2.90
2022-07-31T12:13:06.235Z,2.78
2022-07-31T12:15:36.286Z,2.80
2022-07-31T12:18:05.327Z,2.88
2022-07-31T12:20:36.270Z,3.00
2022-07-31T12:23:05.873Z,2.50
2022-07-31T12:25:45.536Z,2.85
2022-07-31T12:28:14.904Z,2.70
2022-07-31T12:30:44.986Z,2.42
2022-07-31T12:33:16.735Z,3.15
2022-07-31T12:35:56.518Z,3.20
2022-07-31T12:38:45.104Z,2.80
2022-07-31T12:41:14.614Z,2.67
2022-07-31T12:43:50.147Z,2.65
2022-07-31T12:46:37.560Z,2.50
2022-07-31T12:49:06.367Z,2.88
2022-07-31T12:51:44.691Z,2.50
2022-07-31T12:54:17.834Z,2.92
2022-07-31T12:56:47.539Z,2.78
2022-07-31T12:59:16.027Z,2.70
2022-07-31T13:01:45.823Z,2.70
2022-07-31T13:04:19.050Z,2.30
2022-07-31T13:06:51.025Z,2.70
2022-07-31T13:09:19.660Z,2.83
2022-07-31T13:11:49.338Z,2.13
2022-07-31T13:14:19.419Z,2.60
2022-07-31T13:16:49.696Z,3.05
2022-07-31T13:19:18.130Z,2.90
2022-07-31T13:21:49.017Z,2.95
2022-07-31T13:24:18.603Z,2.47
2022-07-31T13:26:47.026Z,2.63
2022-07-31T13:29:16.478Z,2.35
2022-07-31T13:31:45.739Z,2.95
2022-07-31T13:34:15.434Z,2.50
2022-07-31T13:36:43.818Z,2.60
2022-07-31T13:39:12.160Z,2.70
2022-07-31T13:41:41.699Z,2.90
2022-07-31T13:44:10.483Z,2.40
2022-07-31T13:46:38.809Z,2.80
2022-07-31T13:49:10.405Z,2.17
2022-07-31T13:51:40.398Z,2.20
2022-07-31T13:54:08.954Z,2.72
2022-07-31T13:56:43.267Z,2.38
2022-07-31T13:59:12.599Z,2.60
2022-07-31T14:02:03.551Z,2.90
2022-07-31T14:04:32.399Z,2.63
2022-07-31T14:07:04.451Z,2.75
2022-07-31T14:09:35.168Z,2.50
2022-07-31T14:12:04.902Z,2.58
2022-07-31T14:14:34.042Z,2.83
2022-07-31T14:17:02.401Z,2.60
2022-07-31T14:19:30.756Z,2.58
2022-07-31T14:22:14.867Z,2.80
2022-07-31T14:24:50.691Z,2.40
2022-07-31T14:27:20.727Z,2.35
2022-07-31T14:29:49.174Z,2.70
2022-07-31T14:32:17.518Z,3.20
2022-07-31T14:34:45.860Z,2.70
2022-07-31T14:37:15.535Z,2.90
2022-07-31T14:39:43.963Z,2.78
2022-07-31T14:42:12.834Z,2.40
2022-07-31T14:44:42.685Z,2.53
2022-07-31T14:47:11.322Z,2.80
2022-07-31T14:50:07.644Z,2.30
2022-07-31T14:52:29.772Z,2.28
2022-07-31T14:54:59.412Z,2.58
2022-07-31T14:57:27.969Z,2.30
2022-07-31T14:59:56.317Z,2.60
2022-07-31T15:02:24.718Z,2.20
2022-07-31T15:04:53.056Z,2.15
2022-07-31T15:07:41.242Z,2.70
2022-07-31T15:10:12.222Z,2.47
2022-07-31T15:12:40.633Z,2.25
2022-07-31T15:15:09.586Z,2.22
2022-07-31T15:17:37.926Z,1.92
2022-07-31T15:20:06.686Z,1.95
2022-07-31T15:22:35.049Z,1.90
2022-07-31T15:25:03.428Z,2.33
2022-07-31T15:27:33.131Z,2.55
2022-07-31T15:30:03.738Z,2.28
2022-07-31T15:32:34.915Z,2.28
2022-07-31T15:35:03.450Z,2.45
2022-07-31T15:37:31.783Z,2.20
2022-07-31T15:40:01.947Z,2.35
2022-07-31T15:42:33.605Z,2.25
2022-07-31T15:45:01.988Z,2.63
2022-07-31T15:47:30.416Z,2.13
2022-07-31T15:49:58.790Z,2.83
2022-07-31T15:52:27.173Z,2.85
2022-07-31T15:54:55.789Z,2.40
2022-07-31T15:57:24.327Z,2.38
2022-07-31T15:59:55.201Z,2.20
2022-07-31T16:02:23.809Z,2.30
2022-07-31T16:04:53.276Z,3.92
2022-07-31T16:08:30.188Z,2.80
2022-07-31T16:10:16.558Z,1.90
2022-07-31T16:12:46.339Z,1.92
2022-07-31T16:15:17.141Z,1.90
2022-07-31T16:17:46.623Z,2.15
2022-07-31T16:20:25.975Z,2.08
2022-07-31T16:22:55.645Z,2.30
2022-07-31T16:25:24.762Z,2.40
2022-07-31T16:27:53.269Z,2.30
2022-07-31T16:30:23.493Z,2.60
2022-07-31T16:32:52.001Z,2.42
2022-07-31T16:35:20.526Z,2.42
2022-07-31T16:37:52.165Z,2.30
2022-07-31T16:40:29.357Z,2.10
2022-07-31T16:43:00.767Z,2.53
2022-07-31T16:45:30.839Z,2.60
2022-07-31T16:47:59.557Z,2.30
2022-07-31T16:50:28.173Z,2.22
2022-07-31T16:52:56.543Z,2.53
2022-07-31T16:55:59.845Z,2.13
2022-07-31T16:58:14.200Z,1.90
2022-07-31T17:00:44.010Z,1.90
2022-07-31T17:03:59.308Z,2.25
2022-07-31T17:06:00.756Z,3.13
2022-07-31T17:08:29.619Z,2.80
2022-07-31T17:10:58.004Z,2.45
2022-07-31T17:13:26.352Z,2.50
2022-07-31T17:15:56.024Z,2.30
2022-07-31T17:18:26.003Z,2.30
2022-07-31T17:20:56.133Z,2.42
2022-07-31T17:23:42.730Z,2.30
2022-07-31T17:26:20.843Z,2.05
2022-07-31T17:28:50.240Z,1.90
2022-07-31T17:31:20.221Z,2.00
2022-07-31T17:33:55.836Z,2.10
2022-07-31T17:36:28.527Z,2.30
2022-07-31T17:38:57.163Z,1.98
2022-07-31T17:41:26.186Z,2.05
2022-07-31T17:43:54.932Z,2.20
2022-07-31T17:46:29.948Z,1.77
2022-07-31T17:49:19.350Z,1.80
2022-07-31T17:51:59.384Z,1.85
2022-07-31T17:54:36.697Z,2.05
2022-07-31T17:57:05.206Z,2.00
2022-07-31T17:59:33.597Z,1.88
2022-07-31T18:02:04.551Z,2.13
2022-07-31T18:04:34.557Z,1.92
2022-07-31T18:07:04.166Z,2.00
2022-07-31T18:09:32.526Z,1.88
2022-07-31T18:12:01.068Z,1.67
2022-07-31T18:14:29.479Z,1.92
2022-07-31T18:16:57.805Z,2.08
2022-07-31T18:19:27.481Z,1.80
2022-07-31T18:21:56.021Z,1.95
2022-07-31T18:24:25.050Z,2.10
2022-07-31T18:26:54.414Z,1.80
2022-07-31T18:29:22.828Z,2.10
2022-07-31T18:31:51.337Z,2.03
2022-07-31T18:34:19.724Z,1.90
2022-07-31T18:36:54.644Z,2.10
2022-07-31T18:39:23.604Z,1.92
2022-07-31T18:41:52.119Z,2.00
2022-07-31T18:44:21.849Z,2.17
2022-07-31T18:46:50.339Z,2.10
2022-07-31T18:51:02.243Z,2.20
2022-07-31T18:52:10.257Z,2.20
2022-07-31T18:54:38.824Z,2.28
2022-07-31T18:57:07.734Z,2.28
2022-07-31T18:59:36.201Z,2.30
2022-07-31T19:02:05.179Z,2.30
2022-07-31T19:04:34.378Z,2.40
2022-07-31T19:07:02.699Z,2.30
2022-07-31T19:09:32.461Z,2.40
2022-07-31T19:12:06.208Z,2.20
2022-07-31T19:14:36.851Z,2.10
2022-07-31T19:17:05.189Z,2.45
2022-07-31T19:19:54.406Z,2.15
2022-07-31T19:22:24.082Z,2.17
2022-07-31T19:24:54.379Z,2.53
2022-07-31T19:27:34.180Z,2.13
2022-07-31T19:30:13.686Z,2.45
2022-07-31T19:32:42.058Z,2.08
2022-07-31T19:35:10.941Z,2.22
2022-07-31T19:37:39.256Z,2.38
2022-07-31T19:40:10.075Z,2.20
2022-07-31T19:42:39.333Z,2.25
2022-07-31T19:45:08.046Z,2.40
2022-07-31T19:47:36.780Z,2.30
2022-07-31T19:50:05.581Z,2.53
2022-07-31T19:52:34.130Z,2.35
2022-07-31T19:55:02.472Z,2.50
2022-07-31T19:57:32.113Z,2.17
2022-07-31T20:00:00.505Z,2.05
2022-07-31T20:02:28.947Z,1.85
2022-07-31T20:04:57.345Z,2.00
2022-07-31T20:07:32.505Z,2.03
2022-07-31T20:10:01.766Z,2.15
2022-07-31T20:12:31.416Z,2.25
2022-07-31T20:14:59.819Z,1.95
2022-07-31T20:17:28.462Z,2.10
2022-07-31T20:20:15.141Z,2.15
2022-07-31T20:22:44.312Z,2.28
2022-07-31T20:25:19.704Z,2.67
2022-07-31T20:27:50.758Z,2.10
2022-07-31T20:30:21.979Z,2.42
2022-07-31T20:32:51.314Z,2.55
2022-07-31T20:35:47.218Z,2.63
2022-07-31T20:38:08.744Z,2.20
2022-07-31T20:40:52.736Z,2.05
2022-07-31T20:43:25.036Z,2.50
2022-07-31T20:45:53.822Z,2.28
2022-07-31T20:48:24.352Z,2.63
2022-07-31T20:50:53.307Z,2.63
2022-07-31T20:53:22.921Z,2.35
2022-07-31T20:55:51.542Z,2.28
2022-07-31T20:58:19.980Z,2.45
2022-07-31T21:00:50.106Z,2.60
2022-07-31T21:03:18.951Z,2.35
2022-07-31T21:05:47.852Z,2.50
2022-07-31T21:08:16.306Z,2.60
2022-07-31T21:10:44.725Z,2.80
2022-07-31T21:13:13.447Z,2.95
2022-07-31T21:15:45.110Z,2.90
2022-07-31T21:18:16.196Z,3.00
2022-07-31T21:20:52.013Z,2.30
2022-07-31T21:23:21.976Z,2.88
2022-07-31T21:25:50.624Z,2.40
2022-07-31T21:28:19.520Z,2.40
2022-07-31T21:30:48.290Z,2.67
2022-07-31T21:33:18.797Z,2.42
2022-07-31T21:35:47.409Z,2.33
2022-07-31T21:38:16.702Z,2.17
2022-07-31T21:40:45.449Z,3.00
2022-07-31T21:43:16.758Z,2.88
2022-07-31T21:45:55.635Z,2.92
2022-07-31T21:48:28.185Z,2.75
2022-07-31T21:50:57.028Z,3.10
2022-07-31T21:53:25.786Z,2.90
2022-07-31T21:55:54.157Z,2.50
2022-07-31T21:58:22.454Z,2.45
2022-07-31T22:00:50.896Z,2.70
2022-07-31T22:03:19.222Z,2.58
2022-07-31T22:06:06.682Z,2.47
2022-07-31T22:08:35.100Z,2.13
2022-07-31T22:11:03.454Z,2.38
2022-07-31T22:13:31.871Z,2.53
2022-07-31T22:16:01.141Z,2.58
2022-07-31T22:18:33.291Z,1.83
2022-07-31T22:21:04.341Z,2.03
2022-07-31T22:23:33.055Z,2.30
2022-07-31T22:26:02.185Z,1.92
2022-07-31T22:28:30.640Z,1.90
2022-07-31T22:30:59.191Z,2.00
2022-07-31T22:33:27.942Z,2.05
2022-07-31T22:35:58.522Z,1.70
2022-07-31T22:38:30.322Z,1.65
2022-07-31T22:40:59.180Z,1.95
2022-07-31T22:44:12.958Z,2.00
2022-07-31T22:46:16.459Z,1.90
2022-07-31T22:48:46.017Z,1.52
2022-07-31T22:51:15.440Z,2.00
2022-07-31T22:53:48.642Z,2.22
2022-07-31T22:56:18.003Z,1.63
2022-07-31T22:58:46.655Z,2.05
2022-07-31T23:01:15.185Z,1.75
2022-07-31T23:03:43.522Z,1.90
2022-07-31T23:06:30.782Z,1.95
2022-07-31T23:09:01.575Z,1.67
2022-07-31T23:11:30.057Z,1.60
2022-07-31T23:13:58.442Z,1.70
2022-07-31T23:16:27.084Z,1.58
2022-07-31T23:18:55.471Z,1.63
2022-07-31T23:21:23.771Z,1.83
2022-07-31T23:23:52.149Z,1.50
2022-07-31T23:26:23.877Z,1.42
2022-07-31T23:28:52.662Z,1.40
2022-07-31T23:31:21.247Z,1.77
2022-07-31T23:33:50.006Z,1.30
2022-07-31T23:36:18.661Z,1.20
2022-07-31T23:38:48.078Z,1.20
2022-07-31T23:41:36.672Z,1.75
2022-07-31T23:44:05.776Z,1.23
2022-07-31T23:46:38.957Z,1.25
2022-07-31T23:49:08.989Z,1.20
2022-07-31T23:51:37.544Z,1.50
2022-07-31T23:54:06.225Z,1.10
2022-07-31T23:56:34.714Z,1.15
2022-07-31T23:59:03.051Z,1.20
